Time;durP1;ratioP1;P1;durP2;ratioP2;P2;SDS_P1;SDS_P2;PMS_P1;PMS_P2;Temp;Humidity;BMP_temperature;BMP_pressure;BME280_temperature;BME280_humidity;BME280_pressure;Samples;Min_cycle;Max_cycle;Signal;HPM_P1;HPM_P2
2022/10/18 00:00:26;;;;;;;2.15;0.80;;;;;;;;;;2100066;28;20665;-74
2022/10/18 00:01:45;;;;;;;6.03;1.50;;;;;;;;;;2097752;28;20033;-73
2022/10/18 00:03:04;;;;;;;2.25;0.70;;;;;;;;;;2095134;28;20040;-75
2022/10/18 00:04:23;;;;;;;5.28;1.25;;;;;;;;;;2099119;28;20107;-74
2022/10/18 00:05:42;;;;;;;3.20;0.98;;;;;;;;;;2098661;28;20037;-74
2022/10/18 00:07:01;;;;;;;2.35;0.80;;;;;;;;;;2097649;28;20036;-77
2022/10/18 00:08:20;;;;;;;3.72;1.30;;;;;;;;;;2098268;28;20111;-74
2022/10/18 00:09:39;;;;;;;2.67;0.80;;;;;;;;;;2099248;28;20036;-75
2022/10/18 00:10:58;;;;;;;1.90;0.90;;;;;;;;;;2099447;28;20432;-77
2022/10/18 00:12:17;;;;;;;2.15;0.88;;;;;;;;;;2100296;28;20036;-74
2022/10/18 00:13:36;;;;;;;4.22;1.00;;;;;;;;;;2099124;28;20040;-75
2022/10/18 00:14:55;;;;;;;1.77;1.10;;;;;;;;;;2099046;28;20426;-73
2022/10/18 00:16:15;;;;;;;2.42;0.80;;;;;;;;;;2097524;28;20448;-74
2022/10/18 00:17:34;;;;;;;3.08;0.90;;;;;;;;;;2097223;28;20027;-75
2022/10/18 00:18:54;;;;;;;3.60;1.10;;;;;;;;;;2099481;28;20032;-74
2022/10/18 00:20:13;;;;;;;1.70;0.93;;;;;;;;;;2096214;28;20420;-73
2022/10/18 00:21:32;;;;;;;4.20;0.93;;;;;;;;;;2098775;28;20032;-75
2022/10/18 00:22:51;;;;;;;2.83;0.85;;;;;;;;;;2096575;28;20032;-74
2022/10/18 00:24:10;;;;;;;3.75;0.77;;;;;;;;;;2098387;28;20044;-74
2022/10/18 00:25:28;;;;;;;2.85;0.70;;;;;;;;;;2095207;28;20028;-75
2022/10/18 00:26:47;;;;;;;1.60;0.68;;;;;;;;;;2097646;28;20024;-74
2022/10/18 00:28:06;;;;;;;3.85;1.17;;;;;;;;;;2096599;28;20040;-74
2022/10/18 00:29:25;;;;;;;2.72;0.68;;;;;;;;;;2095680;28;20032;-75
2022/10/18 00:30:44;;;;;;;6.88;0.90;;;;;;;;;;2097806;28;20036;-74
2022/10/18 00:32:03;;;;;;;4.07;0.80;;;;;;;;;;2100198;28;20099;-73
2022/10/18 00:33:22;;;;;;;2.05;1.00;;;;;;;;;;2095068;28;20024;-74
2022/10/18 00:34:41;;;;;;;4.72;0.80;;;;;;;;;;2099024;28;20028;-74
2022/10/18 00:36:00;;;;;;;2.97;0.98;;;;;;;;;;2099728;28;20033;-74
2022/10/18 00:37:19;;;;;;;4.03;0.85;;;;;;;;;;2099789;28;20046;-73
2022/10/18 00:38:38;;;;;;;2.30;0.63;;;;;;;;;;2100404;28;20052;-74
2022/10/18 00:39:57;;;;;;;5.22;0.88;;;;;;;;;;2099664;28;20032;-73
2022/10/18 00:41:18;;;;;;;4.68;0.80;;;;;;;;;;2100263;28;20047;-73
2022/10/18 00:42:37;;;;;;;2.55;0.75;;;;;;;;;;2102175;28;20033;-73
2022/10/18 00:44:00;;;;;;;2.08;0.90;;;;;;;;;;2101492;28;20032;-73
2022/10/18 00:45:23;;;;;;;2.25;1.05;;;;;;;;;;2102368;28;20509;-73
2022/10/18 00:46:43;;;;;;;6.50;0.82;;;;;;;;;;2101818;28;20048;-74
2022/10/18 00:48:03;;;;;;;2.13;0.75;;;;;;;;;;2099802;28;20032;-74
2022/10/18 00:49:38;;;;;;;2.20;0.75;;;;;;;;;;2100680;28;20448;-74
2022/10/18 00:50:57;;;;;;;2.95;0.75;;;;;;;;;;2101618;28;20032;-75
2022/10/18 00:52:18;;;;;;;2.33;1.15;;;;;;;;;;2103276;28;20032;-74
2022/10/18 00:53:37;;;;;;;4.00;0.90;;;;;;;;;;2109702;28;20020;-73
2022/10/18 00:54:56;;;;;;;3.78;0.70;;;;;;;;;;2104801;28;20032;-73
2022/10/18 00:56:16;;;;;;;3.08;0.80;;;;;;;;;;2102023;28;20067;-74
2022/10/18 00:57:35;;;;;;;3.75;0.80;;;;;;;;;;2102397;28;20048;-76
2022/10/18 00:58:54;;;;;;;2.45;0.77;;;;;;;;;;2108018;28;20033;-73
2022/10/18 01:00:13;;;;;;;2.08;0.88;;;;;;;;;;2104115;28;20032;-74
2022/10/18 01:01:32;;;;;;;1.52;0.63;;;;;;;;;;2101489;28;20028;-75
2022/10/18 01:02:51;;;;;;;2.03;0.68;;;;;;;;;;2098759;28;20032;-76
2022/10/18 01:04:10;;;;;;;4.10;1.08;;;;;;;;;;2101027;28;20017;-73
2022/10/18 01:05:29;;;;;;;1.80;0.80;;;;;;;;;;2099727;28;20036;-74
2022/10/18 01:06:58;;;;;;;3.17;0.80;;;;;;;;;;2099498;28;20036;-74
2022/10/18 01:08:29;;;;;;;1.70;0.77;;;;;;;;;;2100776;28;20056;-75
2022/10/18 01:10:06;;;;;;;3.13;0.65;;;;;;;;;;2102279;28;20082;-74
2022/10/18 01:11:35;;;;;;;4.65;0.80;;;;;;;;;;2098910;28;20037;-73
2022/10/18 01:13:09;;;;;;;3.80;0.77;;;;;;;;;;2101837;28;20520;-74
2022/10/18 01:14:31;;;;;;;2.58;0.57;;;;;;;;;;2102603;28;20481;-74
2022/10/18 01:16:10;;;;;;;3.80;0.73;;;;;;;;;;2100914;28;20036;-74
2022/10/18 01:17:47;;;;;;;2.05;0.68;;;;;;;;;;2091543;28;20037;-75
2022/10/18 01:19:25;;;;;;;4.38;0.85;;;;;;;;;;2100255;28;20110;-74
2022/10/18 01:20:44;;;;;;;5.05;0.82;;;;;;;;;;2105518;28;20024;-74
2022/10/18 01:22:08;;;;;;;2.00;0.70;;;;;;;;;;2098338;28;20029;-74
2022/10/18 01:23:26;;;;;;;;;;;;;;;;;;2097954;28;20106;-75
2022/10/18 01:25:04;;;;;;;4.00;0.80;;;;;;;;;;2100494;28;19912;-74
2022/10/18 01:26:34;;;;;;;3.05;0.77;;;;;;;;;;2102001;28;20406;-74
2022/10/18 01:28:11;;;;;;;2.22;0.90;;;;;;;;;;2100645;28;20500;-75
2022/10/18 01:29:37;;;;;;;3.60;0.85;;;;;;;;;;2100328;28;20481;-74
2022/10/18 01:30:58;;;;;;;1.23;0.65;;;;;;;;;;2099649;28;20028;-74
2022/10/18 01:32:38;;;;;;;1.92;0.70;;;;;;;;;;2098929;28;20402;-74
2022/10/18 01:33:58;;;;;;;2.45;0.77;;;;;;;;;;2106041;28;20029;-74
2022/10/18 01:35:20;;;;;;;4.43;0.70;;;;;;;;;;2095826;28;20028;-74
2022/10/18 01:36:41;;;;;;;4.07;1.23;;;;;;;;;;2097492;28;20489;-73
2022/10/18 01:38:03;;;;;;;4.32;0.93;;;;;;;;;;2100614;28;20040;-74
2022/10/18 01:39:25;;;;;;;2.72;1.15;;;;;;;;;;2098336;28;20105;-74
2022/10/18 01:40:46;;;;;;;1.85;0.70;;;;;;;;;;2105829;28;20512;-74
2022/10/18 01:42:06;;;;;;;3.55;1.00;;;;;;;;;;2101894;28;20485;-74
2022/10/18 01:43:26;;;;;;;1.75;1.00;;;;;;;;;;2101506;28;20028;-74
2022/10/18 01:44:46;;;;;;;3.60;0.65;;;;;;;;;;2100336;28;20024;-74
2022/10/18 01:46:06;;;;;;;3.13;0.70;;;;;;;;;;2101576;28;20033;-74
2022/10/18 01:47:26;;;;;;;1.88;0.60;;;;;;;;;;2096844;28;20115;-74
2022/10/18 01:48:45;;;;;;;2.97;0.65;;;;;;;;;;2100657;28;20029;-74
2022/10/18 01:50:05;;;;;;;3.47;1.00;;;;;;;;;;2100818;28;20505;-75
2022/10/18 01:51:26;;;;;;;1.67;0.57;;;;;;;;;;2105663;28;20409;-73
2022/10/18 01:52:46;;;;;;;1.83;0.40;;;;;;;;;;2100807;28;20040;-73
2022/10/18 01:54:05;;;;;;;1.35;0.80;;;;;;;;;;2099377;28;20032;-75
2022/10/18 01:55:27;;;;;;;1.48;0.70;;;;;;;;;;2101673;28;20197;-74
2022/10/18 01:56:52;;;;;;;3.20;0.60;;;;;;;;;;2101960;28;20032;-73
2022/10/18 01:58:11;;;;;;;2.45;0.55;;;;;;;;;;2101573;28;20020;-73
2022/10/18 01:59:33;;;;;;;1.83;0.68;;;;;;;;;;2099532;28;20028;-74
2022/10/18 02:00:57;;;;;;;2.80;0.43;;;;;;;;;;2101506;28;20040;-74
2022/10/18 02:02:27;;;;;;;2.40;0.63;;;;;;;;;;2101348;28;20036;-74
2022/10/18 02:03:47;;;;;;;2.10;0.70;;;;;;;;;;2101551;28;20025;-74
2022/10/18 02:05:06;;;;;;;0.85;0.45;;;;;;;;;;2095961;28;20485;-74
2022/10/18 02:06:30;;;;;;;0.95;0.50;;;;;;;;;;2099690;28;20023;-73
2022/10/18 02:07:49;;;;;;;2.28;0.50;;;;;;;;;;2098478;28;20040;-74
2022/10/18 02:09:11;;;;;;;2.55;0.63;;;;;;;;;;2099926;28;20114;-74
2022/10/18 02:10:35;;;;;;;1.75;0.40;;;;;;;;;;2105320;28;20024;-75
2022/10/18 02:11:55;;;;;;;3.05;0.60;;;;;;;;;;2102081;28;20484;-74
2022/10/18 02:13:14;;;;;;;2.03;0.73;;;;;;;;;;2109926;28;20024;-74
2022/10/18 02:14:33;;;;;;;4.75;0.60;;;;;;;;;;2098441;28;20087;-74
2022/10/18 02:15:55;;;;;;;2.65;0.52;;;;;;;;;;2101093;28;20028;-74
2022/10/18 02:17:15;;;;;;;2.47;0.60;;;;;;;;;;2099376;28;20104;-74
2022/10/18 02:18:40;;;;;;;2.30;0.60;;;;;;;;;;2108409;28;20103;-74
2022/10/18 02:19:59;;;;;;;1.02;0.50;;;;;;;;;;2102045;28;20021;-73
2022/10/18 02:21:20;;;;;;;1.75;0.68;;;;;;;;;;2099315;28;20068;-74
2022/10/18 02:22:41;;;;;;;3.33;0.75;;;;;;;;;;2098892;28;20028;-76
2022/10/18 02:24:01;;;;;;;3.97;1.00;;;;;;;;;;2100106;28;20032;-75
2022/10/18 02:25:22;;;;;;;5.57;0.80;;;;;;;;;;2097400;28;20024;-75
2022/10/18 02:26:41;;;;;;;2.95;0.68;;;;;;;;;;2105361;28;20028;-73
2022/10/18 02:28:01;;;;;;;2.70;0.60;;;;;;;;;;2099657;28;20032;-74
2022/10/18 02:29:20;;;;;;;3.03;0.73;;;;;;;;;;2101263;28;20020;-74
2022/10/18 02:31:01;;;;;;;2.20;0.68;;;;;;;;;;2099304;28;20029;-76
2022/10/18 02:32:22;;;;;;;4.43;0.80;;;;;;;;;;2106651;28;20485;-74
2022/10/18 02:33:45;;;;;;;4.03;0.60;;;;;;;;;;2102315;28;20048;-74
2022/10/18 02:35:06;;;;;;;4.45;0.90;;;;;;;;;;2100431;28;20037;-74
2022/10/18 02:36:46;;;;;;;3.30;0.70;;;;;;;;;;2104583;28;20405;-74
2022/10/18 02:38:06;;;;;;;1.50;0.80;;;;;;;;;;2099740;28;20028;-74
2022/10/18 02:39:33;;;;;;;5.25;0.95;;;;;;;;;;2098192;28;20028;-75
2022/10/18 02:40:52;;;;;;;1.45;0.90;;;;;;;;;;2100200;28;20040;-77
2022/10/18 02:42:12;;;;;;;3.08;1.42;;;;;;;;;;2100817;28;20115;-74
2022/10/18 02:43:31;;;;;;;4.07;1.15;;;;;;;;;;2098139;28;20032;-74
2022/10/18 02:44:50;;;;;;;3.53;1.02;;;;;;;;;;2100177;28;20033;-73
2022/10/18 02:46:09;;;;;;;2.97;1.02;;;;;;;;;;2100733;28;20059;-74
2022/10/18 02:47:28;;;;;;;3.92;1.38;;;;;;;;;;2099310;28;20396;-74
2022/10/18 02:48:47;;;;;;;6.28;1.00;;;;;;;;;;2100598;28;20494;-73
2022/10/18 02:50:07;;;;;;;3.28;0.90;;;;;;;;;;2099669;28;20994;-74
2022/10/18 02:51:26;;;;;;;4.13;0.88;;;;;;;;;;2098761;28;20037;-74
2022/10/18 02:52:45;;;;;;;2.65;1.00;;;;;;;;;;2101652;28;20024;-74
2022/10/18 02:54:04;;;;;;;1.45;0.88;;;;;;;;;;2097825;28;20033;-77
2022/10/18 02:55:22;;;;;;;3.42;1.25;;;;;;;;;;2096937;28;20457;-77
2022/10/18 02:56:41;;;;;;;1.50;1.10;;;;;;;;;;2099862;28;20060;-74
2022/10/18 02:58:00;;;;;;;4.00;1.27;;;;;;;;;;2101572;28;20032;-73
2022/10/18 02:59:19;;;;;;;3.17;1.52;;;;;;;;;;2098617;28;20037;-74
2022/10/18 03:00:38;;;;;;;4.28;1.40;;;;;;;;;;2095827;28;20079;-74
2022/10/18 03:01:57;;;;;;;1.75;1.63;;;;;;;;;;2098894;28;20037;-74
2022/10/18 03:03:15;;;;;;;5.10;1.80;;;;;;;;;;2098856;28;20116;-75
2022/10/18 03:04:34;;;;;;;3.40;1.42;;;;;;;;;;2100179;28;20024;-75
2022/10/18 03:05:53;;;;;;;3.70;1.20;;;;;;;;;;2098613;28;20020;-74
2022/10/18 03:07:12;;;;;;;3.20;1.80;;;;;;;;;;2099165;28;20032;-75
2022/10/18 03:08:31;;;;;;;6.07;1.27;;;;;;;;;;2099270;28;20032;-75
2022/10/18 03:09:50;;;;;;;4.72;1.45;;;;;;;;;;2097754;28;20020;-74
2022/10/18 03:11:10;;;;;;;4.13;1.48;;;;;;;;;;2097951;28;20159;-74
2022/10/18 03:12:28;;;;;;;5.38;1.58;;;;;;;;;;2099769;28;20457;-74
2022/10/18 03:13:49;;;;;;;5.03;1.90;;;;;;;;;;2100114;28;20029;-73
2022/10/18 03:15:08;;;;;;;3.90;1.60;;;;;;;;;;2098873;28;20028;-75
2022/10/18 03:16:27;;;;;;;3.47;1.80;;;;;;;;;;2098955;28;20029;-75
2022/10/18 03:17:46;;;;;;;4.38;1.45;;;;;;;;;;2097608;28;20028;-75
2022/10/18 03:19:05;;;;;;;3.25;1.42;;;;;;;;;;2103762;28;20032;-77
2022/10/18 03:20:23;;;;;;;3.95;1.75;;;;;;;;;;2098210;28;20036;-73
2022/10/18 03:21:42;;;;;;;4.55;1.23;;;;;;;;;;2094774;28;20032;-74
2022/10/18 03:23:02;;;;;;;6.50;1.83;;;;;;;;;;2099128;28;20063;-73
2022/10/18 03:24:21;;;;;;;2.55;1.77;;;;;;;;;;2099874;28;20020;-73
2022/10/18 03:25:40;;;;;;;5.50;1.90;;;;;;;;;;2097782;28;20416;-74
2022/10/18 03:26:59;;;;;;;5.47;2.17;;;;;;;;;;2099787;28;20032;-74
2022/10/18 03:28:18;;;;;;;5.20;1.83;;;;;;;;;;2098953;28;20529;-74
2022/10/18 03:29:37;;;;;;;4.93;1.88;;;;;;;;;;2100627;28;20039;-75
2022/10/18 03:31:00;;;;;;;4.90;1.83;;;;;;;;;;2099814;28;21267;-74
2022/10/18 03:32:19;;;;;;;7.40;1.92;;;;;;;;;;2098626;28;20574;-74
2022/10/18 03:33:38;;;;;;;4.95;1.98;;;;;;;;;;2097230;28;20423;-73
2022/10/18 03:34:57;;;;;;;5.90;2.03;;;;;;;;;;2095675;28;20036;-74
2022/10/18 03:36:16;;;;;;;5.00;2.30;;;;;;;;;;2099095;28;20517;-74
2022/10/18 03:37:35;;;;;;;4.05;2.15;;;;;;;;;;2097592;28;20036;-73
2022/10/18 03:38:54;;;;;;;4.20;2.10;;;;;;;;;;2098958;28;20028;-74
2022/10/18 03:40:12;;;;;;;4.75;2.10;;;;;;;;;;2100029;28;20028;-74
2022/10/18 03:41:31;;;;;;;2.88;1.83;;;;;;;;;;2095481;28;20040;-73
2022/10/18 03:42:50;;;;;;;7.18;1.80;;;;;;;;;;2095199;28;20037;-75
2022/10/18 03:44:09;;;;;;;3.47;2.30;;;;;;;;;;2097450;28;20021;-74
2022/10/18 03:45:28;;;;;;;5.13;2.35;;;;;;;;;;2098222;28;20443;-76
2022/10/18 03:46:47;;;;;;;3.33;2.28;;;;;;;;;;2099127;28;20032;-73
2022/10/18 03:48:06;;;;;;;9.93;2.40;;;;;;;;;;2100996;28;20428;-74
2022/10/18 03:49:25;;;;;;;6.35;2.50;;;;;;;;;;2098725;28;20480;-74
2022/10/18 03:50:44;;;;;;;5.55;2.30;;;;;;;;;;2100276;28;20036;-74
2022/10/18 03:52:03;;;;;;;5.47;2.55;;;;;;;;;;2097889;28;20048;-74
2022/10/18 03:53:22;;;;;;;6.40;2.55;;;;;;;;;;2099814;28;20510;-73
2022/10/18 03:54:41;;;;;;;4.78;2.30;;;;;;;;;;2101569;28;20580;-74
2022/10/18 03:56:00;;;;;;;3.72;3.05;;;;;;;;;;2098553;28;20416;-73
2022/10/18 03:57:19;;;;;;;6.50;3.03;;;;;;;;;;2098294;28;20497;-73
2022/10/18 03:58:38;;;;;;;5.38;2.90;;;;;;;;;;2100509;28;20103;-74
2022/10/18 03:59:57;;;;;;;7.45;3.05;;;;;;;;;;2099222;28;20027;-74
2022/10/18 04:01:15;;;;;;;9.13;2.90;;;;;;;;;;2098744;28;20020;-74
2022/10/18 04:02:34;;;;;;;5.82;3.28;;;;;;;;;;2097452;28;20123;-74
2022/10/18 04:03:53;;;;;;;5.70;3.50;;;;;;;;;;2098654;28;20037;-74
2022/10/18 04:05:13;;;;;;;5.13;3.30;;;;;;;;;;2098257;28;20044;-74
2022/10/18 04:06:32;;;;;;;6.68;2.70;;;;;;;;;;2104758;28;20028;-74
2022/10/18 04:07:50;;;;;;;6.22;3.13;;;;;;;;;;2101533;28;20832;-73
2022/10/18 04:09:09;;;;;;;5.90;2.90;;;;;;;;;;2096647;28;20029;-74
2022/10/18 04:10:29;;;;;;;5.20;2.30;;;;;;;;;;2100663;28;20047;-73
2022/10/18 04:11:51;;;;;;;3.88;2.60;;;;;;;;;;2097802;28;20031;-74
2022/10/18 04:13:10;;;;;;;3.97;2.20;;;;;;;;;;2099100;28;20493;-75
2022/10/18 04:14:29;;;;;;;10.75;3.33;;;;;;;;;;2098329;28;20738;-75
2022/10/18 04:15:48;;;;;;;5.43;2.72;;;;;;;;;;2100971;28;20146;-73
2022/10/18 04:17:07;;;;;;;8.65;2.72;;;;;;;;;;2098658;28;20064;-75
2022/10/18 04:18:26;;;;;;;7.82;2.72;;;;;;;;;;2099385;28;20048;-74
2022/10/18 04:19:45;;;;;;;3.33;2.40;;;;;;;;;;2096309;28;20021;-73
2022/10/18 04:21:04;;;;;;;3.92;2.88;;;;;;;;;;2096568;28;20032;-74
2022/10/18 04:22:23;;;;;;;3.92;2.42;;;;;;;;;;2100266;28;20020;-77
2022/10/18 04:23:42;;;;;;;3.90;2.50;;;;;;;;;;2097491;28;20037;-74
2022/10/18 04:25:03;;;;;;;4.05;3.00;;;;;;;;;;2094972;28;20032;-76
2022/10/18 04:26:22;;;;;;;6.50;2.80;;;;;;;;;;2093878;28;20029;-73
2022/10/18 04:27:41;;;;;;;8.77;3.03;;;;;;;;;;2098431;28;20028;-73
2022/10/18 04:29:00;;;;;;;4.82;2.95;;;;;;;;;;2099756;28;20037;-74
2022/10/18 04:30:19;;;;;;;3.78;2.90;;;;;;;;;;2093808;28;20485;-74
2022/10/18 04:31:38;;;;;;;5.20;3.15;;;;;;;;;;2091207;28;20033;-75
2022/10/18 04:32:57;;;;;;;5.32;2.70;;;;;;;;;;2101122;28;20104;-78
2022/10/18 04:34:16;;;;;;;6.30;2.83;;;;;;;;;;2100839;28;20040;-74
2022/10/18 04:35:35;;;;;;;3.13;2.50;;;;;;;;;;2098799;28;20024;-74
2022/10/18 04:36:54;;;;;;;3.15;2.10;;;;;;;;;;2097976;28;20449;-78
2022/10/18 04:38:13;;;;;;;4.78;2.35;;;;;;;;;;2099891;28;20039;-73
2022/10/18 04:39:32;;;;;;;3.90;2.30;;;;;;;;;;2096595;28;20021;-74
2022/10/18 04:40:51;;;;;;;4.47;2.60;;;;;;;;;;2100683;28;20040;-74
2022/10/18 04:42:10;;;;;;;5.50;3.10;;;;;;;;;;2097867;28;20025;-77
2022/10/18 04:43:29;;;;;;;9.82;3.08;;;;;;;;;;2096272;28;20028;-77
2022/10/18 04:44:48;;;;;;;6.28;3.15;;;;;;;;;;2098400;28;20024;-76
2022/10/18 04:46:07;;;;;;;2.75;2.50;;;;;;;;;;2096282;28;20020;-76
2022/10/18 04:47:25;;;;;;;3.10;2.53;;;;;;;;;;2095376;28;20044;-75
2022/10/18 04:48:44;;;;;;;7.10;3.08;;;;;;;;;;2098406;28;20033;-75
2022/10/18 04:50:03;;;;;;;4.72;2.90;;;;;;;;;;2096359;28;20398;-75
2022/10/18 04:51:23;;;;;;;4.57;2.70;;;;;;;;;;2093053;28;20033;-78
2022/10/18 04:52:42;;;;;;;3.08;2.65;;;;;;;;;;2096408;28;20073;-76
2022/10/18 04:54:01;;;;;;;6.50;2.80;;;;;;;;;;2098993;28;20119;-77
2022/10/18 04:55:20;;;;;;;2.95;2.53;;;;;;;;;;2095810;28;20028;-76
2022/10/18 04:56:38;;;;;;;4.55;2.33;;;;;;;;;;2096922;28;20481;-76
2022/10/18 04:57:57;;;;;;;2.55;1.88;;;;;;;;;;2096296;28;20029;-76
2022/10/18 04:59:16;;;;;;;5.80;2.10;;;;;;;;;;2097261;28;20598;-75
2022/10/18 05:00:36;;;;;;;2.83;2.40;;;;;;;;;;2095193;28;20021;-75
2022/10/18 05:01:55;;;;;;;5.57;2.47;;;;;;;;;;2096234;28;20017;-76
2022/10/18 05:03:14;;;;;;;3.72;2.10;;;;;;;;;;2093675;28;20115;-77
2022/10/18 05:04:33;;;;;;;5.75;2.22;;;;;;;;;;2096148;28;20020;-76
2022/10/18 05:05:53;;;;;;;4.32;1.92;;;;;;;;;;2095459;28;20020;-76
2022/10/18 05:07:12;;;;;;;2.55;1.63;;;;;;;;;;2095404;28;20056;-78
2022/10/18 05:08:33;;;;;;;4.72;1.92;;;;;;;;;;2098753;28;20032;-75
2022/10/18 05:09:52;;;;;;;2.10;1.90;;;;;;;;;;2094701;28;20197;-74
2022/10/18 05:11:11;;;;;;;2.33;1.48;;;;;;;;;;2095422;28;20032;-76
2022/10/18 05:12:30;;;;;;;5.53;1.75;;;;;;;;;;2095372;28;20623;-75
2022/10/18 05:13:49;;;;;;;4.13;1.70;;;;;;;;;;2095885;28;20454;-74
2022/10/18 05:15:08;;;;;;;3.83;2.05;;;;;;;;;;2098845;28;20033;-74
2022/10/18 05:16:27;;;;;;;2.35;2.00;;;;;;;;;;2097071;28;20032;-75
2022/10/18 05:17:46;;;;;;;3.60;2.47;;;;;;;;;;2094563;28;20040;-74
2022/10/18 05:19:06;;;;;;;4.57;2.70;;;;;;;;;;2097438;28;20025;-78
2022/10/18 05:20:25;;;;;;;5.97;2.55;;;;;;;;;;2104260;28;20032;-75
2022/10/18 05:21:45;;;;;;;5.80;3.28;;;;;;;;;;2102246;28;20056;-75
2022/10/18 05:23:03;;;;;;;5.65;3.17;;;;;;;;;;2092205;28;20478;-75
2022/10/18 05:24:22;;;;;;;5.22;2.60;;;;;;;;;;2095966;28;20021;-74
2022/10/18 05:25:41;;;;;;;4.20;3.63;;;;;;;;;;2100553;28;20409;-74
2022/10/18 05:27:00;;;;;;;3.53;3.10;;;;;;;;;;2098542;28;20133;-76
2022/10/18 05:28:20;;;;;;;5.78;2.75;;;;;;;;;;2097645;28;20143;-77
2022/10/18 05:29:38;;;;;;;3.13;2.80;;;;;;;;;;2097563;28;20482;-75
2022/10/18 05:31:01;;;;;;;7.60;3.03;;;;;;;;;;2094859;28;20126;-77
2022/10/18 05:32:20;;;;;;;3.47;2.33;;;;;;;;;;2095227;28;20036;-74
2022/10/18 05:33:39;;;;;;;3.03;2.25;;;;;;;;;;2095223;28;20119;-74
2022/10/18 05:34:58;;;;;;;3.80;1.75;;;;;;;;;;2096814;28;20446;-76
2022/10/18 05:36:17;;;;;;;5.85;1.88;;;;;;;;;;2098721;28;20032;-75
2022/10/18 05:37:36;;;;;;;2.67;1.73;;;;;;;;;;2099418;28;20127;-80
2022/10/18 05:38:55;;;;;;;3.28;1.75;;;;;;;;;;2097057;28;20064;-74
2022/10/18 05:40:14;;;;;;;6.78;1.50;;;;;;;;;;2095096;28;20093;-77
2022/10/18 05:41:33;;;;;;;2.75;1.70;;;;;;;;;;2102382;28;20112;-73
2022/10/18 05:42:52;;;;;;;4.50;1.75;;;;;;;;;;2101998;28;20032;-73
2022/10/18 05:44:11;;;;;;;3.25;1.58;;;;;;;;;;2097650;28;20035;-72
2022/10/18 05:45:31;;;;;;;2.10;1.50;;;;;;;;;;2097174;28;20025;-72
2022/10/18 05:46:49;;;;;;;3.90;1.67;;;;;;;;;;2099095;28;20029;-73
2022/10/18 05:48:08;;;;;;;3.85;2.25;;;;;;;;;;2098757;28;20024;-74
2022/10/18 05:49:27;;;;;;;5.88;2.50;;;;;;;;;;2099843;28;20040;-72
2022/10/18 05:50:46;;;;;;;2.85;1.55;;;;;;;;;;2100597;28;20025;-73
2022/10/18 05:52:05;;;;;;;3.05;2.35;;;;;;;;;;2100046;28;20036;-72
2022/10/18 05:53:24;;;;;;;6.00;2.38;;;;;;;;;;2097834;28;20028;-73
2022/10/18 05:54:43;;;;;;;6.00;2.55;;;;;;;;;;2096298;28;20044;-74
2022/10/18 05:56:03;;;;;;;2.25;2.00;;;;;;;;;;2092564;28;20514;-74
2022/10/18 05:57:22;;;;;;;3.70;2.28;;;;;;;;;;2101056;28;20036;-75
2022/10/18 05:58:41;;;;;;;2.45;2.00;;;;;;;;;;2098036;28;20114;-74
2022/10/18 06:00:00;;;;;;;2.67;2.10;;;;;;;;;;2100587;28;20429;-73
2022/10/18 06:01:19;;;;;;;2.45;2.10;;;;;;;;;;2100176;28;20028;-74
2022/10/18 06:02:38;;;;;;;5.30;2.17;;;;;;;;;;2097837;28;20021;-75
2022/10/18 06:03:57;;;;;;;2.28;1.95;;;;;;;;;;2100194;28;20032;-74
2022/10/18 06:05:16;;;;;;;3.83;2.53;;;;;;;;;;2099054;28;20029;-77
2022/10/18 06:06:35;;;;;;;2.80;1.75;;;;;;;;;;2098562;28;20064;-78
2022/10/18 06:07:55;;;;;;;2.22;1.88;;;;;;;;;;2097881;28;20028;-73
2022/10/18 06:09:14;;;;;;;3.83;2.10;;;;;;;;;;2099086;28;20032;-74
2022/10/18 06:10:33;;;;;;;2.50;2.30;;;;;;;;;;2100690;28;22185;-74
2022/10/18 06:11:52;;;;;;;3.70;1.98;;;;;;;;;;2101272;28;20028;-74
2022/10/18 06:13:11;;;;;;;4.13;1.98;;;;;;;;;;2101597;28;20044;-76
2022/10/18 06:14:30;;;;;;;4.20;2.30;;;;;;;;;;2100949;28;20025;-74
2022/10/18 06:15:54;;;;;;;3.92;2.67;;;;;;;;;;2100383;28;20111;-75
2022/10/18 06:17:13;;;;;;;4.22;2.28;;;;;;;;;;2098975;28;20119;-75
2022/10/18 06:18:32;;;;;;;4.95;2.42;;;;;;;;;;2100250;28;20473;-75
2022/10/18 06:19:51;;;;;;;3.03;2.20;;;;;;;;;;2101951;28;20064;-75
2022/10/18 06:21:10;;;;;;;7.25;2.30;;;;;;;;;;2100804;28;20169;-74
2022/10/18 06:22:29;;;;;;;4.60;1.73;;;;;;;;;;2101605;28;20057;-74
2022/10/18 06:23:49;;;;;;;6.32;2.17;;;;;;;;;;2099414;28;20036;-75
2022/10/18 06:25:08;;;;;;;2.42;2.22;;;;;;;;;;2099421;28;20076;-74
2022/10/18 06:26:27;;;;;;;2.50;1.80;;;;;;;;;;2100475;28;20511;-76
2022/10/18 06:27:46;;;;;;;2.97;1.95;;;;;;;;;;2096381;28;20501;-74
2022/10/18 06:29:05;;;;;;;5.38;2.15;;;;;;;;;;2097423;28;20029;-75
2022/10/18 06:30:24;;;;;;;2.95;1.90;;;;;;;;;;2098685;28;20036;-76
2022/10/18 06:31:43;;;;;;;2.30;1.73;;;;;;;;;;2098334;28;20479;-76
2022/10/18 06:33:02;;;;;;;2.83;1.50;;;;;;;;;;2100616;28;20481;-75
2022/10/18 06:34:21;;;;;;;3.78;1.70;;;;;;;;;;2100691;28;20032;-75
2022/10/18 06:35:40;;;;;;;3.15;1.63;;;;;;;;;;2099960;28;20020;-75
2022/10/18 06:36:59;;;;;;;2.30;1.85;;;;;;;;;;2100314;28;20052;-75
2022/10/18 06:38:18;;;;;;;4.50;1.85;;;;;;;;;;2100118;28;20432;-75
2022/10/18 06:39:37;;;;;;;5.65;1.40;;;;;;;;;;2100192;28;20115;-76
2022/10/18 06:40:56;;;;;;;4.50;1.80;;;;;;;;;;2098982;28;20044;-74
2022/10/18 06:42:15;;;;;;;6.63;1.98;;;;;;;;;;2099747;28;20024;-74
2022/10/18 06:43:34;;;;;;;3.22;1.60;;;;;;;;;;2100355;28;20020;-76
2022/10/18 06:44:53;;;;;;;4.85;1.83;;;;;;;;;;2098093;28;20025;-74
2022/10/18 06:46:12;;;;;;;2.70;1.80;;;;;;;;;;2097213;28;20032;-75
2022/10/18 06:47:31;;;;;;;3.75;1.60;;;;;;;;;;2099956;28;20024;-74
2022/10/18 06:48:50;;;;;;;3.58;1.70;;;;;;;;;;2101187;28;20496;-74
2022/10/18 06:50:10;;;;;;;3.13;2.20;;;;;;;;;;2098564;28;20056;-75
2022/10/18 06:51:29;;;;;;;3.75;1.95;;;;;;;;;;2100844;28;20032;-74
2022/10/18 06:52:50;;;;;;;4.32;1.92;;;;;;;;;;2099705;28;20040;-74
2022/10/18 06:54:09;;;;;;;2.85;1.70;;;;;;;;;;2104280;28;20485;-74
2022/10/18 06:55:31;;;;;;;2.13;1.65;;;;;;;;;;2100981;28;20056;-74
2022/10/18 06:56:54;;;;;;;2.45;1.65;;;;;;;;;;2099737;28;20025;-74
2022/10/18 06:58:13;;;;;;;3.25;1.52;;;;;;;;;;2099770;28;20027;-75
2022/10/18 06:59:32;;;;;;;3.38;1.70;;;;;;;;;;2107661;28;20027;-74
2022/10/18 07:00:50;;;;;;;2.50;1.70;;;;;;;;;;2098596;28;20402;-74
2022/10/18 07:02:13;;;;;;;4.80;1.58;;;;;;;;;;2100189;28;20036;-74
2022/10/18 07:03:33;;;;;;;3.85;1.65;;;;;;;;;;2099555;28;20028;-74
2022/10/18 07:04:52;;;;;;;2.33;1.40;;;;;;;;;;2099996;28;20040;-74
2022/10/18 07:06:12;;;;;;;4.93;1.40;;;;;;;;;;2099338;28;20032;-74
2022/10/18 07:07:31;;;;;;;1.70;1.20;;;;;;;;;;2096908;28;20044;-74
2022/10/18 07:08:51;;;;;;;2.05;1.17;;;;;;;;;;2099958;28;20040;-74
2022/10/18 07:10:10;;;;;;;2.72;1.38;;;;;;;;;;2099129;28;20028;-74
2022/10/18 07:11:29;;;;;;;2.45;1.00;;;;;;;;;;2095973;28;20060;-75
2022/10/18 07:12:48;;;;;;;2.45;1.00;;;;;;;;;;2095197;28;20028;-74
2022/10/18 07:14:07;;;;;;;2.05;1.08;;;;;;;;;;2100699;28;20036;-74
2022/10/18 07:15:26;;;;;;;1.98;0.80;;;;;;;;;;2098317;28;20115;-74
2022/10/18 07:16:46;;;;;;;3.45;0.85;;;;;;;;;;2096426;28;20028;-74
2022/10/18 07:18:04;;;;;;;2.78;0.70;;;;;;;;;;2100422;28;20041;-74
2022/10/18 07:19:23;;;;;;;1.20;0.82;;;;;;;;;;2102416;28;20024;-77
2022/10/18 07:20:42;;;;;;;3.78;1.08;;;;;;;;;;2102315;28;20036;-75
2022/10/18 07:22:01;;;;;;;1.35;0.98;;;;;;;;;;2100549;28;20040;-74
2022/10/18 07:23:22;;;;;;;1.67;0.90;;;;;;;;;;2100459;28;20021;-76
2022/10/18 07:24:41;;;;;;;1.25;1.08;;;;;;;;;;2098563;28;20073;-75
2022/10/18 07:26:01;;;;;;;2.85;0.93;;;;;;;;;;2100808;28;20017;-75
2022/10/18 07:27:20;;;;;;;0.60;0.57;;;;;;;;;;2098500;28;20504;-74
2022/10/18 07:28:39;;;;;;;1.05;0.68;;;;;;;;;;2099486;28;20052;-75
2022/10/18 07:29:57;;;;;;;2.15;0.80;;;;;;;;;;2099479;28;20041;-74
2022/10/18 07:31:17;;;;;;;2.25;0.52;;;;;;;;;;2100832;28;20083;-74
2022/10/18 07:32:36;;;;;;;0.57;0.50;;;;;;;;;;2098968;28;20458;-74
2022/10/18 07:33:55;;;;;;;0.70;0.55;;;;;;;;;;2099625;28;20059;-74
2022/10/18 07:35:14;;;;;;;0.47;0.40;;;;;;;;;;2098780;28;20416;-74
2022/10/18 07:36:33;;;;;;;2.70;0.70;;;;;;;;;;2099861;28;20036;-76
2022/10/18 07:37:52;;;;;;;1.27;0.50;;;;;;;;;;2100917;28;20029;-75
2022/10/18 07:39:11;;;;;;;1.15;0.70;;;;;;;;;;2101219;28;20025;-75
2022/10/18 07:40:30;;;;;;;1.30;0.82;;;;;;;;;;2098051;28;20028;-76
2022/10/18 07:41:49;;;;;;;2.33;0.80;;;;;;;;;;2098958;28;20016;-75
2022/10/18 07:43:08;;;;;;;1.90;0.52;;;;;;;;;;2099059;28;20025;-74
2022/10/18 07:44:27;;;;;;;1.10;0.60;;;;;;;;;;2100390;28;20123;-75
2022/10/18 07:45:52;;;;;;;0.52;0.47;;;;;;;;;;2099505;28;20028;-74
2022/10/18 07:47:11;;;;;;;0.82;0.63;;;;;;;;;;2099246;28;20032;-77
2022/10/18 07:48:30;;;;;;;1.27;0.85;;;;;;;;;;2098579;28;20390;-76
2022/10/18 07:49:49;;;;;;;1.10;0.52;;;;;;;;;;2097539;28;20032;-75
2022/10/18 07:51:08;;;;;;;0.77;0.30;;;;;;;;;;2099544;28;20033;-75
2022/10/18 07:52:27;;;;;;;0.50;0.40;;;;;;;;;;2098767;28;20033;-76
2022/10/18 07:53:46;;;;;;;0.73;0.50;;;;;;;;;;2094382;28;20483;-76
2022/10/18 07:55:05;;;;;;;0.50;0.40;;;;;;;;;;2095845;28;20032;-78
2022/10/18 07:56:24;;;;;;;0.98;0.50;;;;;;;;;;2099088;28;20036;-76
2022/10/18 07:57:43;;;;;;;0.57;0.40;;;;;;;;;;2100429;28;20443;-75
2022/10/18 07:59:02;;;;;;;1.42;0.47;;;;;;;;;;2100548;28;20078;-75
2022/10/18 08:00:21;;;;;;;1.45;0.60;;;;;;;;;;2099699;28;20028;-76